Sandusky, Michigan
Current Conditions -  °F | °C
As of 12:36 PM on Friday 19 Dec 2014 (Local Time) from KBAX Reporting Station
Scattered Clouds Scattered Clouds  
Wind Chill: 24°   Ceiling: Unl
Heat Index: 29°   Visibility: 10mi
Dew Point: 23°   Wind: 5mph
Humidity: 78%   Direction: 300°WNW
Pressure: 30.25"   Gusts: NA
Location:  43.42°N, 82.83°W
Report Text: KBAX 191736Z AUTO 30004KT 10SM SCT019 M02/M05 A3025 RMK AO2 T10161050
Loading
Personal Weather Stations






























Interactive Weather Map New forecast layout! Learn more

10-Day Weather Forecast

Advertisements
Track Severe Weather on mobile